sensor_id;sensor_type;location;lat;lon;timestamp;pressure;altitude;pressure_sealevel;temperature;humidity
8697;BME280;4385;48.848;8.924;2023-06-14T00:02:08;96947.94;;;22.55;100.00
8697;BME280;4385;48.848;8.924;2023-06-14T00:04:34;96946.25;;;22.54;100.00
8697;BME280;4385;48.848;8.924;2023-06-14T00:07:00;96949.75;;;22.53;100.00
8697;BME280;4385;48.848;8.924;2023-06-14T00:09:25;96946.25;;;22.54;100.00
8697;BME280;4385;48.848;8.924;2023-06-14T00:11:51;96948.91;;;22.53;100.00
8697;BME280;4385;48.848;8.924;2023-06-14T00:14:16;96942.97;;;22.52;100.00
8697;BME280;4385;48.848;8.924;2023-06-14T00:16:41;96939.63;;;22.50;100.00
8697;BME280;4385;48.848;8.924;2023-06-14T00:19:08;96945.59;;;22.51;100.00
8697;BME280;4385;48.848;8.924;2023-06-14T00:21:33;96943.84;;;22.51;100.00
8697;BME280;4385;48.848;8.924;2023-06-14T00:24:00;96943.09;;;22.49;100.00
8697;BME280;4385;48.848;8.924;2023-06-14T00:26:26;96940.53;;;22.49;100.00
8697;BME280;4385;48.848;8.924;2023-06-14T00:28:52;96937.97;;;22.49;100.00
8697;BME280;4385;48.848;8.924;2023-06-14T00:31:17;96942.34;;;22.47;100.00
8697;BME280;4385;48.848;8.924;2023-06-14T00:33:42;96950.03;;;22.47;100.00
8697;BME280;4385;48.848;8.924;2023-06-14T00:36:08;96945.81;;;22.46;100.00
8697;BME280;4385;48.848;8.924;2023-06-14T00:38:33;96951.84;;;22.45;100.00
8697;BME280;4385;48.848;8.924;2023-06-14T00:40:58;96949.25;;;22.45;100.00
8697;BME280;4385;48.848;8.924;2023-06-14T00:43:23;96945.97;;;22.43;100.00
8697;BME280;4385;48.848;8.924;2023-06-14T00:45:49;96947.69;;;22.42;100.00
8697;BME280;4385;48.848;8.924;2023-06-14T00:48:16;96951.97;;;22.42;100.00
8697;BME280;4385;48.848;8.924;2023-06-14T00:50:42;96943.47;;;22.41;100.00
8697;BME280;4385;48.848;8.924;2023-06-14T00:53:13;96948.53;;;22.43;100.00
8697;BME280;4385;48.848;8.924;2023-06-14T00:55:40;96944.22;;;22.43;100.00
8697;BME280;4385;48.848;8.924;2023-06-14T00:58:06;96943.47;;;22.41;100.00
8697;BME280;4385;48.848;8.924;2023-06-14T01:00:31;96958.03;;;22.41;100.00
8697;BME280;4385;48.848;8.924;2023-06-14T01:02:56;96951.16;;;22.41;100.00
8697;BME280;4385;48.848;8.924;2023-06-14T01:05:22;96954.63;;;22.40;100.00
8697;BME280;4385;48.848;8.924;2023-06-14T01:13:05;96950.41;;;22.39;100.00
8697;BME280;4385;48.848;8.924;2023-06-14T01:15:32;96952.13;;;22.39;100.00
8697;BME280;4385;48.848;8.924;2023-06-14T01:17:59;96958.09;;;22.39;100.00
8697;BME280;4385;48.848;8.924;2023-06-14T01:20:30;96955.59;;;22.38;100.00
8697;BME280;4385;48.848;8.924;2023-06-14T01:22:56;96955.59;;;22.38;100.00
8697;BME280;4385;48.848;8.924;2023-06-14T01:25:22;96961.66;;;22.37;100.00
8697;BME280;4385;48.848;8.924;2023-06-14T01:28:00;96958.25;;;22.36;100.00
8697;BME280;4385;48.848;8.924;2023-06-14T01:30:28;96961.66;;;22.37;100.00
8697;BME280;4385;48.848;8.924;2023-06-14T01:32:54;96954.91;;;22.34;100.00
8697;BME280;4385;48.848;8.924;2023-06-14T01:35:21;96957.47;;;22.34;100.00
8697;BME280;4385;48.848;8.924;2023-06-14T01:37:47;96956.72;;;22.32;100.00
8697;BME280;4385;48.848;8.924;2023-06-14T01:40:14;96960.19;;;22.31;100.00
8697;BME280;4385;48.848;8.924;2023-06-14T01:42:40;96954.25;;;22.30;100.00
8697;BME280;4385;48.848;8.924;2023-06-14T01:45:07;96955.03;;;22.31;100.00
8697;BME280;4385;48.848;8.924;2023-06-14T01:47:33;96959.38;;;22.30;100.00
8697;BME280;4385;48.848;8.924;2023-06-14T01:50:00;96957.69;;;22.29;100.00
8697;BME280;4385;48.848;8.924;2023-06-14T01:52:25;96961.94;;;22.30;100.00
8697;BME280;4385;48.848;8.924;2023-06-14T01:54:51;96959.38;;;22.30;100.00
8697;BME280;4385;48.848;8.924;2023-06-14T01:57:16;96964.50;;;22.30;100.00
8697;BME280;4385;48.848;8.924;2023-06-14T01:59:41;96963.66;;;22.30;100.00
8697;BME280;4385;48.848;8.924;2023-06-14T02:02:07;96954.25;;;22.30;100.00
8697;BME280;4385;48.848;8.924;2023-06-14T02:04:32;96952.56;;;22.29;100.00
8697;BME280;4385;48.848;8.924;2023-06-14T02:06:58;96952.56;;;22.29;100.00
8697;BME280;4385;48.848;8.924;2023-06-14T02:09:23;96956.03;;;22.28;100.00
8697;BME280;4385;48.848;8.924;2023-06-14T02:11:48;96955.19;;;22.28;100.00
8697;BME280;4385;48.848;8.924;2023-06-14T02:14:14;96964.66;;;22.27;100.00
8697;BME280;4385;48.848;8.924;2023-06-14T02:16:39;96969.78;;;22.27;100.00
8697;BME280;4385;48.848;8.924;2023-06-14T02:19:05;96959.50;;;22.27;100.00
8697;BME280;4385;48.848;8.924;2023-06-14T02:21:30;96958.66;;;22.27;100.00
8697;BME280;4385;48.848;8.924;2023-06-14T02:23:56;96957.81;;;22.26;100.00
8697;BME280;4385;48.848;8.924;2023-06-14T02:26:23;96961.31;;;22.25;100.00
8697;BME280;4385;48.848;8.924;2023-06-14T02:28:48;96966.44;;;22.25;100.00
8697;BME280;4385;48.848;8.924;2023-06-14T02:31:14;96957.09;;;22.24;100.00
8697;BME280;4385;48.848;8.924;2023-06-14T02:33:39;96968.22;;;22.23;100.00
8697;BME280;4385;48.848;8.924;2023-06-14T02:36:05;96968.22;;;22.23;100.00
8697;BME280;4385;48.848;8.924;2023-06-14T02:38:31;96964.94;;;22.21;100.00
8697;BME280;4385;48.848;8.924;2023-06-14T02:40:57;96961.44;;;22.22;100.00
8697;BME280;4385;48.848;8.924;2023-06-14T02:43:22;96958.88;;;22.22;100.00
8697;BME280;4385;48.848;8.924;2023-06-14T02:45:47;96963.25;;;22.20;100.00
8697;BME280;4385;48.848;8.924;2023-06-14T02:48:13;96956.47;;;22.19;100.00
8697;BME280;4385;48.848;8.924;2023-06-14T02:50:38;96959.94;;;22.18;100.00
8697;BME280;4385;48.848;8.924;2023-06-14T02:53:03;96958.25;;;22.17;100.00
8697;BME280;4385;48.848;8.924;2023-06-14T02:55:28;96962.50;;;22.18;100.00
8697;BME280;4385;48.848;8.924;2023-06-14T02:57:54;96964.22;;;22.17;100.00
8697;BME280;4385;48.848;8.924;2023-06-14T03:00:19;96964.22;;;22.17;100.00
8697;BME280;4385;48.848;8.924;2023-06-14T03:02:45;96960.81;;;22.17;100.00
8697;BME280;4385;48.848;8.924;2023-06-14T03:05:11;96961.72;;;22.16;100.00
8697;BME280;4385;48.848;8.924;2023-06-14T03:07:36;96960.88;;;22.15;100.00
8697;BME280;4385;48.848;8.924;2023-06-14T03:10:07;96959.22;;;22.14;100.00
8697;BME280;4385;48.848;8.924;2023-06-14T03:12:33;96963.53;;;22.14;100.00
8697;BME280;4385;48.848;8.924;2023-06-14T03:14:58;96960.22;;;22.12;100.00
8697;BME280;4385;48.848;8.924;2023-06-14T03:17:27;96960.22;;;22.12;100.00
8697;BME280;4385;48.848;8.924;2023-06-14T03:19:55;96965.34;;;22.12;100.00
8697;BME280;4385;48.848;8.924;2023-06-14T03:22:20;96962.84;;;22.10;100.00
8697;BME280;4385;48.848;8.924;2023-06-14T03:24:47;96967.97;;;22.10;100.00
8697;BME280;4385;48.848;8.924;2023-06-14T03:27:12;96969.72;;;22.10;100.00
8697;BME280;4385;48.848;8.924;2023-06-14T03:29:37;96963.72;;;22.09;100.00
8697;BME280;4385;48.848;8.924;2023-06-14T03:32:03;96969.78;;;22.08;100.00
8697;BME280;4385;48.848;8.924;2023-06-14T03:34:28;96970.69;;;22.07;100.00
8697;BME280;4385;48.848;8.924;2023-06-14T03:36:54;96976.63;;;22.08;100.00
8697;BME280;4385;48.848;8.924;2023-06-14T03:39:19;96983.53;;;22.07;100.00
8697;BME280;4385;48.848;8.924;2023-06-14T03:41:45;96987.81;;;22.07;100.00
8697;BME280;4385;48.848;8.924;2023-06-14T03:44:10;96987.81;;;22.07;100.00
8697;BME280;4385;48.848;8.924;2023-06-14T03:46:36;96996.41;;;22.05;100.00
8697;BME280;4385;48.848;8.924;2023-06-14T03:49:01;96986.97;;;22.06;100.00
8697;BME280;4385;48.848;8.924;2023-06-14T03:51:27;96995.56;;;22.05;100.00
8697;BME280;4385;48.848;8.924;2023-06-14T03:53:53;97001.63;;;22.04;100.00
8697;BME280;4385;48.848;8.924;2023-06-14T03:56:19;97004.19;;;22.04;100.00
8697;BME280;4385;48.848;8.924;2023-06-14T03:58:44;97011.88;;;22.04;100.00
8697;BME280;4385;48.848;8.924;2023-06-14T04:01:09;97010.13;;;22.04;100.00
8697;BME280;4385;48.848;8.924;2023-06-14T04:03:37;97007.56;;;22.04;100.00
8697;BME280;4385;48.848;8.924;2023-06-14T04:06:03;97016.16;;;22.03;100.00
8697;BME280;4385;48.848;8.924;2023-06-14T04:08:29;97011.94;;;22.02;100.00
8697;BME280;4385;48.848;8.924;2023-06-14T04:10:55;97012.81;;;22.01;100.00
8697;BME280;4385;48.848;8.924;2023-06-14T04:13:20;97012.00;;;22.01;100.00
8697;BME280;4385;48.848;8.924;2023-06-14T04:15:45;97013.72;;;22.00;100.00
8697;BME280;4385;48.848;8.924;2023-06-14T04:18:11;97021.44;;;22.00;100.00
8697;BME280;4385;48.848;8.924;2023-06-14T04:20:36;97019.72;;;22.01;100.00
8697;BME280;4385;48.848;8.924;2023-06-14T04:23:17;97023.16;;;22.00;100.00
8697;BME280;4385;48.848;8.924;2023-06-14T04:25:47;97025.78;;;21.98;100.00
8697;BME280;4385;48.848;8.924;2023-06-14T04:28:13;97026.63;;;21.99;100.00
8697;BME280;4385;48.848;8.924;2023-06-14T04:30:40;97025.03;;;21.96;100.00
8697;BME280;4385;48.848;8.924;2023-06-14T04:33:05;97030.25;;;21.95;100.00
8697;BME280;4385;48.848;8.924;2023-06-14T04:35:31;97029.41;;;21.94;100.00
8697;BME280;4385;48.848;8.924;2023-06-14T04:37:58;97029.41;;;21.94;100.00
8697;BME280;4385;48.848;8.924;2023-06-14T04:40:24;97027.75;;;21.93;100.00
8697;BME280;4385;48.848;8.924;2023-06-14T04:42:49;97032.03;;;21.92;100.00
8697;BME280;4385;48.848;8.924;2023-06-14T04:45:16;97032.88;;;21.93;100.00
8697;BME280;4385;48.848;8.924;2023-06-14T04:47:41;97030.31;;;21.93;100.00
8697;BME280;4385;48.848;8.924;2023-06-14T04:50:07;97030.31;;;21.93;100.00
8697;BME280;4385;48.848;8.924;2023-06-14T04:52:33;97034.53;;;21.94;100.00
8697;BME280;4385;48.848;8.924;2023-06-14T04:54:58;97038.00;;;21.93;100.00
8697;BME280;4385;48.848;8.924;2023-06-14T04:57:24;97029.47;;;21.92;100.00
8697;BME280;4385;48.848;8.924;2023-06-14T04:59:50;97037.94;;;21.95;100.00
8697;BME280;4385;48.848;8.924;2023-06-14T05:02:20;97046.50;;;21.93;100.00
8697;BME280;4385;48.848;8.924;2023-06-14T05:04:45;97049.78;;;21.97;100.00
8697;BME280;4385;48.848;8.924;2023-06-14T05:07:12;97044.66;;;21.97;100.00
8697;BME280;4385;48.848;8.924;2023-06-14T05:09:39;97052.34;;;21.97;100.00
8697;BME280;4385;48.848;8.924;2023-06-14T05:12:05;97041.19;;;21.98;100.00
8697;BME280;4385;48.848;8.924;2023-06-14T05:14:33;97048.00;;;21.99;100.00
8697;BME280;4385;48.848;8.924;2023-06-14T05:16:59;97050.56;;;21.99;100.00
8697;BME280;4385;48.848;8.924;2023-06-14T05:19:25;97055.63;;;22.01;100.00
8697;BME280;4385;48.848;8.924;2023-06-14T05:21:51;97050.50;;;22.01;100.00
8697;BME280;4385;48.848;8.924;2023-06-14T05:24:18;97055.56;;;22.02;100.00
8697;BME280;4385;48.848;8.924;2023-06-14T05:26:43;97058.13;;;22.02;100.00
8697;BME280;4385;48.848;8.924;2023-06-14T05:29:09;97061.44;;;22.04;100.00
8697;BME280;4385;48.848;8.924;2023-06-14T05:31:34;97069.97;;;22.05;100.00
8697;BME280;4385;48.848;8.924;2023-06-14T05:33:59;97067.34;;;22.07;100.00
8697;BME280;4385;48.848;8.924;2023-06-14T05:36:25;97069.91;;;22.07;100.00
8697;BME280;4385;48.848;8.924;2023-06-14T05:38:50;97073.25;;;22.09;100.00
8697;BME280;4385;48.848;8.924;2023-06-14T05:41:16;97074.91;;;22.10;100.00
8697;BME280;4385;48.848;8.924;2023-06-14T05:43:42;97068.84;;;22.11;100.00
8697;BME280;4385;48.848;8.924;2023-06-14T05:46:07;97072.28;;;22.11;100.00
8697;BME280;4385;48.848;8.924;2023-06-14T05:48:32;97064.50;;;22.13;100.00
8697;BME280;4385;48.848;8.924;2023-06-14T05:50:58;97068.72;;;22.14;100.00
8697;BME280;4385;48.848;8.924;2023-06-14T05:53:23;97062.72;;;22.15;100.00
8697;BME280;4385;48.848;8.924;2023-06-14T05:55:50;97069.50;;;22.16;100.00
8697;BME280;4385;48.848;8.924;2023-06-14T05:58:16;97075.41;;;22.18;100.00
8697;BME280;4385;48.848;8.924;2023-06-14T06:00:42;97077.97;;;22.18;100.00
8697;BME280;4385;48.848;8.924;2023-06-14T06:03:07;97074.50;;;22.19;100.00
8697;BME280;4385;48.848;8.924;2023-06-14T06:05:34;97082.19;;;22.19;100.00
8697;BME280;4385;48.848;8.924;2023-06-14T06:07:59;97079.63;;;22.19;100.00
8697;BME280;4385;48.848;8.924;2023-06-14T06:10:25;97083.84;;;22.20;100.00
8697;BME280;4385;48.848;8.924;2023-06-14T06:12:50;97074.50;;;22.19;100.00
8697;BME280;4385;48.848;8.924;2023-06-14T06:15:17;97090.75;;;22.20;100.00
8697;BME280;4385;48.848;8.924;2023-06-14T06:17:43;97083.03;;;22.20;100.00
8697;BME280;4385;48.848;8.924;2023-06-14T06:20:10;97090.81;;;22.18;100.00
8697;BME280;4385;48.848;8.924;2023-06-14T06:22:36;97090.81;;;22.18;100.00
8697;BME280;4385;48.848;8.924;2023-06-14T06:25:02;97092.53;;;22.17;100.00
8697;BME280;4385;48.848;8.924;2023-06-14T06:27:28;97094.25;;;22.17;100.00
8697;BME280;4385;48.848;8.924;2023-06-14T06:29:53;97093.44;;;22.16;100.00
8697;BME280;4385;48.848;8.924;2023-06-14T06:32:18;97099.38;;;22.17;100.00
8697;BME280;4385;48.848;8.924;2023-06-14T06:34:43;97095.94;;;22.18;100.00
8697;BME280;4385;48.848;8.924;2023-06-14T06:37:09;97089.91;;;22.19;100.00
8697;BME280;4385;48.848;8.924;2023-06-14T06:39:34;97094.03;;;22.22;100.00
8697;BME280;4385;48.848;8.924;2023-06-14T06:42:00;97094.88;;;22.22;100.00
8697;BME280;4385;48.848;8.924;2023-06-14T06:44:25;97096.53;;;22.23;100.00
8697;BME280;4385;48.848;8.924;2023-06-14T06:46:50;97092.19;;;22.25;100.00
8697;BME280;4385;48.848;8.924;2023-06-14T06:49:15;97099.88;;;22.25;100.00
8697;BME280;4385;48.848;8.924;2023-06-14T06:51:42;97101.53;;;22.26;100.00
8697;BME280;4385;48.848;8.924;2023-06-14T06:54:08;97108.38;;;22.27;100.00
8697;BME280;4385;48.848;8.924;2023-06-14T06:56:34;97110.03;;;22.28;100.00
8697;BME280;4385;48.848;8.924;2023-06-14T06:58:59;97121.19;;;22.27;100.00
8697;BME280;4385;48.848;8.924;2023-06-14T07:01:25;97121.25;;;22.26;100.00
8697;BME280;4385;48.848;8.924;2023-06-14T07:03:51;97119.50;;;22.26;100.00
8697;BME280;4385;48.848;8.924;2023-06-14T07:06:17;97122.06;;;22.26;100.00
8697;BME280;4385;48.848;8.924;2023-06-14T07:08:45;97119.50;;;22.26;100.00
8697;BME280;4385;48.848;8.924;2023-06-14T07:11:11;97118.69;;;22.26;100.00
8697;BME280;4385;48.848;8.924;2023-06-14T07:13:36;97121.31;;;22.24;100.00
8697;BME280;4385;48.848;8.924;2023-06-14T07:16:04;97123.91;;;22.24;100.00
8697;BME280;4385;48.848;8.924;2023-06-14T07:18:29;97117.06;;;22.23;100.00
8697;BME280;4385;48.848;8.924;2023-06-14T07:20:56;97129.03;;;22.24;100.00
8697;BME280;4385;48.848;8.924;2023-06-14T07:23:22;97129.03;;;22.24;100.00
8697;BME280;4385;48.848;8.924;2023-06-14T07:25:48;97138.38;;;22.25;100.00
8697;BME280;4385;48.848;8.924;2023-06-14T07:28:13;97136.66;;;22.26;100.00
8697;BME280;4385;48.848;8.924;2023-06-14T07:30:39;97142.59;;;22.26;100.00
8697;BME280;4385;48.848;8.924;2023-06-14T07:33:04;97137.47;;;22.26;100.00
8697;BME280;4385;48.848;8.924;2023-06-14T07:35:30;97147.59;;;22.29;100.00
8697;BME280;4385;48.848;8.924;2023-06-14T07:37:56;97150.16;;;22.29;100.00
8697;BME280;4385;48.848;8.924;2023-06-14T07:40:21;97147.59;;;22.29;100.00
8697;BME280;4385;48.848;8.924;2023-06-14T07:42:47;97154.34;;;22.32;100.00
8697;BME280;4385;48.848;8.924;2023-06-14T07:45:13;97152.59;;;22.33;100.00
8697;BME280;4385;48.848;8.924;2023-06-14T07:47:39;97153.38;;;22.35;100.00
8697;BME280;4385;48.848;8.924;2023-06-14T07:50:04;97153.44;;;22.33;100.00
8697;BME280;4385;48.848;8.924;2023-06-14T07:52:30;97149.97;;;22.34;100.00
8697;BME280;4385;48.848;8.924;2023-06-14T07:54:56;97151.66;;;22.35;100.00
8697;BME280;4385;48.848;8.924;2023-06-14T07:57:21;97153.38;;;22.35;100.00
8697;BME280;4385;48.848;8.924;2023-06-14T07:59:47;97153.38;;;22.35;100.00
8697;BME280;4385;48.848;8.924;2023-06-14T08:02:12;97152.47;;;22.36;100.00
8697;BME280;4385;48.848;8.924;2023-06-14T08:04:38;97156.78;;;22.35;100.00
8697;BME280;4385;48.848;8.924;2023-06-14T08:07:03;97152.53;;;22.34;100.00
8697;BME280;4385;48.848;8.924;2023-06-14T08:09:29;97148.31;;;22.33;100.00
8697;BME280;4385;48.848;8.924;2023-06-14T08:11:55;97151.78;;;22.32;100.00
8697;BME280;4385;48.848;8.924;2023-06-14T08:14:20;97157.75;;;22.33;100.00
8697;BME280;4385;48.848;8.924;2023-06-14T08:16:45;97151.78;;;22.32;100.00
8697;BME280;4385;48.848;8.924;2023-06-14T08:19:11;97152.66;;;22.31;100.00
8697;BME280;4385;48.848;8.924;2023-06-14T08:21:36;97153.50;;;22.32;100.00
8697;BME280;4385;48.848;8.924;2023-06-14T08:24:02;97151.84;;;22.30;100.00
8697;BME280;4385;48.848;8.924;2023-06-14T08:26:28;97146.78;;;22.29;100.00
8697;BME280;4385;48.848;8.924;2023-06-14T08:28:55;97150.16;;;22.29;100.00
8697;BME280;4385;48.848;8.924;2023-06-14T08:31:21;97150.16;;;22.29;100.00
8697;BME280;4385;48.848;8.924;2023-06-14T08:33:46;97160.44;;;22.29;100.00
8697;BME280;4385;48.848;8.924;2023-06-14T08:36:11;97154.44;;;22.30;100.00
8697;BME280;4385;48.848;8.924;2023-06-14T08:38:38;97159.50;;;22.32;100.00
8697;BME280;4385;48.848;8.924;2023-06-14T08:41:04;97154.28;;;22.34;100.00
8697;BME280;4385;48.848;8.924;2023-06-14T08:43:30;97164.56;;;22.34;100.00
8697;BME280;4385;48.848;8.924;2023-06-14T08:45:58;97161.09;;;22.35;100.00
8697;BME280;4385;48.848;8.924;2023-06-14T08:48:28;97170.44;;;22.36;100.00
8697;BME280;4385;48.848;8.924;2023-06-14T08:50:59;97166.22;;;22.35;100.00
8697;BME280;4385;48.848;8.924;2023-06-14T08:53:29;97164.56;;;22.34;100.00
8697;BME280;4385;48.848;8.924;2023-06-14T08:55:57;97167.13;;;22.34;100.00
8697;BME280;4385;48.848;8.924;2023-06-14T08:58:22;97168.00;;;22.33;100.00
8697;BME280;4385;48.848;8.924;2023-06-14T09:00:49;97169.69;;;22.34;100.00
8697;BME280;4385;48.848;8.924;2023-06-14T09:03:17;97168.84;;;22.33;100.00
8697;BME280;4385;48.848;8.924;2023-06-14T09:05:45;97163.72;;;22.33;100.00
8697;BME280;4385;48.848;8.924;2023-06-14T09:08:11;97170.56;;;22.33;100.00
8697;BME280;4385;48.848;8.924;2023-06-14T09:10:36;97172.25;;;22.34;100.00
8697;BME280;4385;48.848;8.924;2023-06-14T09:13:02;97168.00;;;22.33;100.00
8697;BME280;4385;48.848;8.924;2023-06-14T09:15:29;97162.88;;;22.33;100.00
8697;BME280;4385;48.848;8.924;2023-06-14T09:17:54;97168.00;;;22.33;100.00
8697;BME280;4385;48.848;8.924;2023-06-14T09:20:20;97164.56;;;22.34;100.00
8697;BME280;4385;48.848;8.924;2023-06-14T09:22:46;97170.56;;;22.33;100.00
8697;BME280;4385;48.848;8.924;2023-06-14T09:25:11;97168.84;;;22.33;100.00
8697;BME280;4385;48.848;8.924;2023-06-14T09:27:40;97167.13;;;22.34;100.00
8697;BME280;4385;48.848;8.924;2023-06-14T09:30:09;97167.06;;;22.35;100.00
8697;BME280;4385;48.848;8.924;2023-06-14T09:32:38;97169.56;;;22.37;100.00
8697;BME280;4385;48.848;8.924;2023-06-14T09:35:08;97165.25;;;22.37;100.00
8697;BME280;4385;48.848;8.924;2023-06-14T09:37:34;97178.91;;;22.38;100.00
8697;BME280;4385;48.848;8.924;2023-06-14T09:40:00;97178.00;;;22.39;100.00
8697;BME280;4385;48.848;8.924;2023-06-14T09:42:26;97177.19;;;22.38;100.00
8697;BME280;4385;48.848;8.924;2023-06-14T09:44:54;97177.19;;;22.38;100.00
8697;BME280;4385;48.848;8.924;2023-06-14T09:47:21;97180.56;;;22.39;100.00
8697;BME280;4385;48.848;8.924;2023-06-14T09:49:47;97175.44;;;22.39;100.00
8697;BME280;4385;48.848;8.924;2023-06-14T09:52:17;97173.72;;;22.39;100.00
8697;BME280;4385;48.848;8.924;2023-06-14T09:54:44;97169.44;;;22.40;100.00
8697;BME280;4385;48.848;8.924;2023-06-14T09:57:15;97173.72;;;22.39;100.00
8697;BME280;4385;48.848;8.924;2023-06-14T09:59:46;97177.19;;;22.38;100.00
8697;BME280;4385;48.848;8.924;2023-06-14T10:02:24;97172.88;;;22.39;100.00
8697;BME280;4385;48.848;8.924;2023-06-14T10:05:03;97172.88;;;22.39;100.00
8697;BME280;4385;48.848;8.924;2023-06-14T10:07:32;97166.94;;;22.38;100.00
8697;BME280;4385;48.848;8.924;2023-06-14T10:10:00;97170.31;;;22.39;100.00
8697;BME280;4385;48.848;8.924;2023-06-14T10:12:26;97167.75;;;22.39;100.00
8697;BME280;4385;48.848;8.924;2023-06-14T10:14:52;97172.88;;;22.39;100.00
8697;BME280;4385;48.848;8.924;2023-06-14T10:20:10;97167.75;;;22.39;100.00
8697;BME280;4385;48.848;8.924;2023-06-14T10:22:49;97175.44;;;22.39;100.00
8697;BME280;4385;48.848;8.924;2023-06-14T10:25:31;97160.94;;;22.38;100.00
8697;BME280;4385;48.848;8.924;2023-06-14T10:28:23;97162.59;;;22.39;100.00
8697;BME280;4385;48.848;8.924;2023-06-14T10:31:09;97156.59;;;22.40;100.00
8697;BME280;4385;48.848;8.924;2023-06-14T10:33:55;97159.16;;;22.40;100.00
8697;BME280;4385;48.848;8.924;2023-06-14T10:36:30;97161.72;;;22.40;100.00
8697;BME280;4385;48.848;8.924;2023-06-14T10:39:06;97165.16;;;22.39;100.00
8697;BME280;4385;48.848;8.924;2023-06-14T10:41:39;97159.97;;;22.40;100.00
8697;BME280;4385;48.848;8.924;2023-06-14T10:44:32;97160.81;;;22.41;100.00
8697;BME280;4385;48.848;8.924;2023-06-14T10:47:00;97165.03;;;22.42;100.00
8697;BME280;4385;48.848;8.924;2023-06-14T10:49:45;97160.75;;;22.42;100.00
8697;BME280;4385;48.848;8.924;2023-06-14T10:52:19;97161.59;;;22.43;100.00
8697;BME280;4385;48.848;8.924;2023-06-14T10:55:02;97171.78;;;22.45;100.00
8697;BME280;4385;48.848;8.924;2023-06-14T10:57:29;97176.09;;;22.44;100.00
8697;BME280;4385;48.848;8.924;2023-06-14T10:59:57;97178.66;;;22.44;100.00
8697;BME280;4385;48.848;8.924;2023-06-14T11:02:45;97169.16;;;22.46;100.00
8697;BME280;4385;48.848;8.924;2023-06-14T11:05:14;97170.88;;;22.46;100.00
8697;BME280;4385;48.848;8.924;2023-06-14T11:10:39;97164.03;;;22.46;100.00
8697;BME280;4385;48.848;8.924;2023-06-14T11:13:06;97163.19;;;22.46;100.00
8697;BME280;4385;48.848;8.924;2023-06-14T11:15:33;97159.69;;;22.47;100.00
8697;BME280;4385;48.848;8.924;2023-06-14T11:18:05;97159.69;;;22.47;100.00
8697;BME280;4385;48.848;8.924;2023-06-14T11:20:33;97165.69;;;22.47;100.00
8697;BME280;4385;48.848;8.924;2023-06-14T11:22:59;97157.97;;;22.47;100.00
8697;BME280;4385;48.848;8.924;2023-06-14T11:25:24;97161.38;;;22.48;100.00
8697;BME280;4385;48.848;8.924;2023-06-14T11:27:50;97158.75;;;22.49;100.00
8697;BME280;4385;48.848;8.924;2023-06-14T11:30:16;97160.41;;;22.50;100.00
8697;BME280;4385;48.848;8.924;2023-06-14T11:32:42;97165.53;;;22.50;100.00
8697;BME280;4385;48.848;8.924;2023-06-14T11:35:08;97162.97;;;22.50;100.00
8697;BME280;4385;48.848;8.924;2023-06-14T11:37:36;97165.53;;;22.50;100.00
8697;BME280;4385;48.848;8.924;2023-06-14T11:40:02;97160.41;;;22.50;100.00
8697;BME280;4385;48.848;8.924;2023-06-14T11:42:33;97162.91;;;22.52;100.00
8697;BME280;4385;48.848;8.924;2023-06-14T11:44:58;97158.63;;;22.52;100.00
8697;BME280;4385;48.848;8.924;2023-06-14T11:47:23;97162.06;;;22.51;100.00
8697;BME280;4385;48.848;8.924;2023-06-14T11:49:49;97163.75;;;22.52;100.00
8697;BME280;4385;48.848;8.924;2023-06-14T11:52:14;97158.63;;;22.52;100.00
8697;BME280;4385;48.848;8.924;2023-06-14T11:54:40;97160.28;;;22.53;100.00
8697;BME280;4385;48.848;8.924;2023-06-14T11:57:06;97173.97;;;22.54;100.00
8697;BME280;4385;48.848;8.924;2023-06-14T11:59:32;97163.63;;;22.55;100.00
8697;BME280;4385;48.848;8.924;2023-06-14T12:02:03;97155.00;;;22.57;100.00
8697;BME280;4385;48.848;8.924;2023-06-14T12:04:29;97150.72;;;22.57;100.00
8697;BME280;4385;48.848;8.924;2023-06-14T12:06:54;97150.72;;;22.57;100.00
8697;BME280;4385;48.848;8.924;2023-06-14T12:09:21;97157.47;;;22.60;100.00
8697;BME280;4385;48.848;8.924;2023-06-14T12:11:59;97164.25;;;22.61;100.00
8697;BME280;4385;48.848;8.924;2023-06-14T12:14:30;97155.75;;;22.60;100.00
8697;BME280;4385;48.848;8.924;2023-06-14T12:17:04;97162.59;;;22.60;100.00
8697;BME280;4385;48.848;8.924;2023-06-14T12:19:30;97166.91;;;22.59;100.00
8697;BME280;4385;48.848;8.924;2023-06-14T12:21:59;97150.69;;;22.59;100.00
8697;BME280;4385;48.848;8.924;2023-06-14T12:24:28;97157.50;;;22.58;100.00
8697;BME280;4385;48.848;8.924;2023-06-14T12:26:54;97161.78;;;22.58;100.00
8697;BME280;4385;48.848;8.924;2023-06-14T12:29:20;97156.66;;;22.58;100.00
8697;BME280;4385;48.848;8.924;2023-06-14T12:31:45;97154.09;;;22.58;100.00
8697;BME280;4385;48.848;8.924;2023-06-14T12:34:10;97157.50;;;22.58;100.00
8697;BME280;4385;48.848;8.924;2023-06-14T12:36:36;97160.13;;;22.57;100.00
8697;BME280;4385;48.848;8.924;2023-06-14T12:39:07;97160.06;;;22.58;100.00
8697;BME280;4385;48.848;8.924;2023-06-14T12:41:33;97156.63;;;22.59;100.00
8697;BME280;4385;48.848;8.924;2023-06-14T12:43:58;97148.84;;;22.61;100.00
8697;BME280;4385;48.848;8.924;2023-06-14T12:46:24;97147.13;;;22.61;100.00
8697;BME280;4385;48.848;8.924;2023-06-14T12:48:50;97158.25;;;22.62;100.00
8697;BME280;4385;48.848;8.924;2023-06-14T12:51:16;97154.75;;;22.63;100.00
8697;BME280;4385;48.848;8.924;2023-06-14T12:53:41;97153.84;;;22.64;100.00
8697;BME280;4385;48.848;8.924;2023-06-14T12:56:06;97156.41;;;22.64;100.00
8697;BME280;4385;48.848;8.924;2023-06-14T12:58:32;97157.25;;;22.64;100.00
8697;BME280;4385;48.848;8.924;2023-06-14T13:00:57;97154.63;;;22.66;100.00
8697;BME280;4385;48.848;8.924;2023-06-14T13:03:22;97155.47;;;22.66;100.00
8697;BME280;4385;48.848;8.924;2023-06-14T13:05:48;97157.19;;;22.66;100.00
8697;BME280;4385;48.848;8.924;2023-06-14T13:08:14;97164.91;;;22.66;100.00
8697;BME280;4385;48.848;8.924;2023-06-14T13:10:39;97147.84;;;22.65;100.00
8697;BME280;4385;48.848;8.924;2023-06-14T13:13:04;97152.97;;;22.65;100.00
8697;BME280;4385;48.848;8.924;2023-06-14T13:15:29;97147.84;;;22.65;100.00
8697;BME280;4385;48.848;8.924;2023-06-14T13:17:55;97151.28;;;22.64;100.00
8697;BME280;4385;48.848;8.924;2023-06-14T13:20:20;97156.41;;;22.64;100.00